sensor_id;sensor_type;location;lat;lon;timestamp;temperature;humidity
61398;DHT22;47267;48.130;-2.040;2023-11-19T00:00:31;20.40;62.70
61398;DHT22;47267;48.130;-2.040;2023-11-19T00:02:56;20.40;62.70
61398;DHT22;47267;48.130;-2.040;2023-11-19T00:05:22;20.40;62.70
61398;DHT22;47267;48.130;-2.040;2023-11-19T00:07:47;20.40;62.70
61398;DHT22;47267;48.130;-2.040;2023-11-19T00:10:14;20.40;62.70
61398;DHT22;47267;48.130;-2.040;2023-11-19T00:12:46;20.40;62.70
61398;DHT22;47267;48.130;-2.040;2023-11-19T00:15:12;20.40;62.70
61398;DHT22;47267;48.130;-2.040;2023-11-19T00:17:42;20.40;62.70
61398;DHT22;47267;48.130;-2.040;2023-11-19T00:20:14;20.40;62.70
61398;DHT22;47267;48.130;-2.040;2023-11-19T00:22:41;20.40;62.70
61398;DHT22;47267;48.130;-2.040;2023-11-19T00:25:08;20.40;62.70
61398;DHT22;47267;48.130;-2.040;2023-11-19T00:27:34;20.40;62.70
61398;DHT22;47267;48.130;-2.040;2023-11-19T00:30:00;20.40;62.70
61398;DHT22;47267;48.130;-2.040;2023-11-19T00:32:25;20.40;62.70
61398;DHT22;47267;48.130;-2.040;2023-11-19T00:34:51;20.40;62.70
61398;DHT22;47267;48.130;-2.040;2023-11-19T00:37:17;20.40;62.70
61398;DHT22;47267;48.130;-2.040;2023-11-19T00:39:43;20.40;62.70
61398;DHT22;47267;48.130;-2.040;2023-11-19T00:42:09;20.40;62.70
61398;DHT22;47267;48.130;-2.040;2023-11-19T00:44:39;20.30;62.70
61398;DHT22;47267;48.130;-2.040;2023-11-19T00:47:05;20.30;62.70
61398;DHT22;47267;48.130;-2.040;2023-11-19T00:49:31;20.30;62.70
61398;DHT22;47267;48.130;-2.040;2023-11-19T00:51:58;20.30;62.70
61398;DHT22;47267;48.130;-2.040;2023-11-19T00:54:24;20.30;62.70
61398;DHT22;47267;48.130;-2.040;2023-11-19T00:56:52;20.30;62.70
61398;DHT22;47267;48.130;-2.040;2023-11-19T00:59:18;20.30;62.70
61398;DHT22;47267;48.130;-2.040;2023-11-19T01:01:44;20.30;62.70
61398;DHT22;47267;48.130;-2.040;2023-11-19T01:04:10;20.30;62.70
61398;DHT22;47267;48.130;-2.040;2023-11-19T01:06:35;20.30;62.60
61398;DHT22;47267;48.130;-2.040;2023-11-19T01:09:01;20.30;62.70
61398;DHT22;47267;48.130;-2.040;2023-11-19T01:11:28;20.30;62.70
61398;DHT22;47267;48.130;-2.040;2023-11-19T01:13:53;20.30;62.70
61398;DHT22;47267;48.130;-2.040;2023-11-19T01:16:20;20.30;62.70
61398;DHT22;47267;48.130;-2.040;2023-11-19T01:18:49;20.30;62.70
61398;DHT22;47267;48.130;-2.040;2023-11-19T01:21:15;20.30;62.70
61398;DHT22;47267;48.130;-2.040;2023-11-19T01:23:41;20.30;62.80
61398;DHT22;47267;48.130;-2.040;2023-11-19T01:26:11;20.30;62.70
61398;DHT22;47267;48.130;-2.040;2023-11-19T01:28:41;20.30;62.70
61398;DHT22;47267;48.130;-2.040;2023-11-19T01:31:14;20.30;62.70
61398;DHT22;47267;48.130;-2.040;2023-11-19T01:33:40;20.30;62.70
61398;DHT22;47267;48.130;-2.040;2023-11-19T01:36:07;20.20;62.60
61398;DHT22;47267;48.130;-2.040;2023-11-19T01:38:36;20.20;62.70
61398;DHT22;47267;48.130;-2.040;2023-11-19T01:41:02;20.20;62.70
61398;DHT22;47267;48.130;-2.040;2023-11-19T01:43:36;20.20;62.60
61398;DHT22;47267;48.130;-2.040;2023-11-19T01:46:05;20.20;62.70
61398;DHT22;47267;48.130;-2.040;2023-11-19T01:48:35;20.20;62.70
61398;DHT22;47267;48.130;-2.040;2023-11-19T01:51:03;20.20;62.70
61398;DHT22;47267;48.130;-2.040;2023-11-19T01:53:30;20.20;62.70
61398;DHT22;47267;48.130;-2.040;2023-11-19T01:55:57;20.20;62.70
61398;DHT22;47267;48.130;-2.040;2023-11-19T01:58:23;20.20;62.70
61398;DHT22;47267;48.130;-2.040;2023-11-19T02:00:49;20.20;62.70
61398;DHT22;47267;48.130;-2.040;2023-11-19T02:03:15;20.20;62.70
61398;DHT22;47267;48.130;-2.040;2023-11-19T02:05:41;20.20;62.70
61398;DHT22;47267;48.130;-2.040;2023-11-19T02:08:08;20.20;62.70
61398;DHT22;47267;48.130;-2.040;2023-11-19T02:10:33;20.20;62.70
61398;DHT22;47267;48.130;-2.040;2023-11-19T02:13:00;20.10;62.60
61398;DHT22;47267;48.130;-2.040;2023-11-19T02:15:26;20.20;62.70
61398;DHT22;47267;48.130;-2.040;2023-11-19T02:17:51;20.20;62.70
61398;DHT22;47267;48.130;-2.040;2023-11-19T02:20:17;20.10;62.70
61398;DHT22;47267;48.130;-2.040;2023-11-19T02:22:48;20.10;62.70
61398;DHT22;47267;48.130;-2.040;2023-11-19T02:25:30;20.20;62.70
61398;DHT22;47267;48.130;-2.040;2023-11-19T02:28:01;20.10;62.70
61398;DHT22;47267;48.130;-2.040;2023-11-19T02:30:27;20.10;62.70
61398;DHT22;47267;48.130;-2.040;2023-11-19T02:32:58;20.10;62.70
61398;DHT22;47267;48.130;-2.040;2023-11-19T02:35:28;20.10;62.60
61398;DHT22;47267;48.130;-2.040;2023-11-19T02:37:56;20.10;62.60
61398;DHT22;47267;48.130;-2.040;2023-11-19T02:40:22;20.10;62.60
61398;DHT22;47267;48.130;-2.040;2023-11-19T02:42:50;20.10;62.70
61398;DHT22;47267;48.130;-2.040;2023-11-19T02:45:15;20.10;62.60
61398;DHT22;47267;48.130;-2.040;2023-11-19T02:47:41;20.10;62.60
61398;DHT22;47267;48.130;-2.040;2023-11-19T02:50:10;20.10;62.60
61398;DHT22;47267;48.130;-2.040;2023-11-19T02:52:43;20.10;62.60
61398;DHT22;47267;48.130;-2.040;2023-11-19T02:55:12;20.10;62.60
61398;DHT22;47267;48.130;-2.040;2023-11-19T02:57:39;20.00;62.60
61398;DHT22;47267;48.130;-2.040;2023-11-19T03:00:19;20.10;62.60
61398;DHT22;47267;48.130;-2.040;2023-11-19T03:02:49;20.10;62.70
61398;DHT22;47267;48.130;-2.040;2023-11-19T03:05:23;20.00;62.60
61398;DHT22;47267;48.130;-2.040;2023-11-19T03:07:49;20.10;62.60
61398;DHT22;47267;48.130;-2.040;2023-11-19T03:10:15;20.00;62.50
61398;DHT22;47267;48.130;-2.040;2023-11-19T03:12:41;20.00;62.60
61398;DHT22;47267;48.130;-2.040;2023-11-19T03:15:08;20.00;62.60
61398;DHT22;47267;48.130;-2.040;2023-11-19T03:17:43;20.00;62.60
61398;DHT22;47267;48.130;-2.040;2023-11-19T03:20:10;20.00;62.60
61398;DHT22;47267;48.130;-2.040;2023-11-19T03:22:39;20.00;62.60
61398;DHT22;47267;48.130;-2.040;2023-11-19T03:25:04;20.00;62.60
61398;DHT22;47267;48.130;-2.040;2023-11-19T03:27:36;20.00;62.60
61398;DHT22;47267;48.130;-2.040;2023-11-19T03:30:06;20.00;62.60
61398;DHT22;47267;48.130;-2.040;2023-11-19T03:32:33;20.00;62.60
61398;DHT22;47267;48.130;-2.040;2023-11-19T03:35:00;20.00;62.60
61398;DHT22;47267;48.130;-2.040;2023-11-19T03:37:26;20.00;62.60
61398;DHT22;47267;48.130;-2.040;2023-11-19T03:39:54;19.90;62.50
61398;DHT22;47267;48.130;-2.040;2023-11-19T03:42:20;19.90;62.60
61398;DHT22;47267;48.130;-2.040;2023-11-19T03:44:46;20.00;62.60
61398;DHT22;47267;48.130;-2.040;2023-11-19T03:47:12;19.90;62.50
61398;DHT22;47267;48.130;-2.040;2023-11-19T03:49:37;19.90;62.50
61398;DHT22;47267;48.130;-2.040;2023-11-19T03:52:03;19.90;62.60
61398;DHT22;47267;48.130;-2.040;2023-11-19T03:54:30;19.90;62.60
61398;DHT22;47267;48.130;-2.040;2023-11-19T03:56:55;19.90;62.50
61398;DHT22;47267;48.130;-2.040;2023-11-19T03:59:21;19.90;62.50
61398;DHT22;47267;48.130;-2.040;2023-11-19T04:01:47;19.90;62.50
61398;DHT22;47267;48.130;-2.040;2023-11-19T04:04:13;19.90;62.50
61398;DHT22;47267;48.130;-2.040;2023-11-19T04:06:39;19.90;62.60
61398;DHT22;47267;48.130;-2.040;2023-11-19T04:09:05;19.90;62.50
61398;DHT22;47267;48.130;-2.040;2023-11-19T04:11:31;19.90;62.60
61398;DHT22;47267;48.130;-2.040;2023-11-19T04:13:58;19.80;62.50
61398;DHT22;47267;48.130;-2.040;2023-11-19T04:16:29;19.80;62.50
61398;DHT22;47267;48.130;-2.040;2023-11-19T04:18:55;19.90;62.50
61398;DHT22;47267;48.130;-2.040;2023-11-19T04:21:21;19.80;62.50
61398;DHT22;47267;48.130;-2.040;2023-11-19T04:23:48;19.80;62.50
61398;DHT22;47267;48.130;-2.040;2023-11-19T04:26:14;19.80;62.60
61398;DHT22;47267;48.130;-2.040;2023-11-19T04:28:41;19.80;62.60
61398;DHT22;47267;48.130;-2.040;2023-11-19T04:31:06;19.80;62.60
61398;DHT22;47267;48.130;-2.040;2023-11-19T04:33:34;19.80;62.60
61398;DHT22;47267;48.130;-2.040;2023-11-19T04:36:00;19.80;62.60
61398;DHT22;47267;48.130;-2.040;2023-11-19T04:38:25;19.80;62.60
61398;DHT22;47267;48.130;-2.040;2023-11-19T04:40:52;19.80;62.60
61398;DHT22;47267;48.130;-2.040;2023-11-19T04:43:18;19.80;62.70
61398;DHT22;47267;48.130;-2.040;2023-11-19T04:45:44;19.80;62.70
61398;DHT22;47267;48.130;-2.040;2023-11-19T04:48:10;19.80;62.70
61398;DHT22;47267;48.130;-2.040;2023-11-19T04:50:37;19.80;62.70
61398;DHT22;47267;48.130;-2.040;2023-11-19T04:53:03;19.90;62.80
61398;DHT22;47267;48.130;-2.040;2023-11-19T04:55:29;19.90;62.80
61398;DHT22;47267;48.130;-2.040;2023-11-19T04:57:55;19.90;62.70
61398;DHT22;47267;48.130;-2.040;2023-11-19T05:00:21;19.90;62.80
61398;DHT22;47267;48.130;-2.040;2023-11-19T05:02:47;19.90;62.80
61398;DHT22;47267;48.130;-2.040;2023-11-19T05:05:12;19.90;62.80
61398;DHT22;47267;48.130;-2.040;2023-11-19T05:07:38;19.90;62.80
61398;DHT22;47267;48.130;-2.040;2023-11-19T05:10:04;19.90;62.80
61398;DHT22;47267;48.130;-2.040;2023-11-19T05:12:31;19.90;62.80
61398;DHT22;47267;48.130;-2.040;2023-11-19T05:14:57;19.90;62.80
61398;DHT22;47267;48.130;-2.040;2023-11-19T05:17:23;19.90;62.80
61398;DHT22;47267;48.130;-2.040;2023-11-19T05:19:49;20.00;62.80
61398;DHT22;47267;48.130;-2.040;2023-11-19T05:22:15;19.90;62.70
61398;DHT22;47267;48.130;-2.040;2023-11-19T05:24:40;19.90;62.80
61398;DHT22;47267;48.130;-2.040;2023-11-19T05:27:07;20.00;62.80
61398;DHT22;47267;48.130;-2.040;2023-11-19T05:29:33;19.90;62.70
61398;DHT22;47267;48.130;-2.040;2023-11-19T05:31:59;20.00;62.80
61398;DHT22;47267;48.130;-2.040;2023-11-19T05:34:25;20.00;62.80
61398;DHT22;47267;48.130;-2.040;2023-11-19T05:36:50;20.00;62.80
61398;DHT22;47267;48.130;-2.040;2023-11-19T05:39:16;20.00;62.80
61398;DHT22;47267;48.130;-2.040;2023-11-19T05:41:44;20.00;62.80
61398;DHT22;47267;48.130;-2.040;2023-11-19T05:44:09;20.00;62.80
61398;DHT22;47267;48.130;-2.040;2023-11-19T05:46:35;20.00;62.80
61398;DHT22;47267;48.130;-2.040;2023-11-19T05:49:05;20.00;62.80
61398;DHT22;47267;48.130;-2.040;2023-11-19T05:51:31;20.00;62.80
61398;DHT22;47267;48.130;-2.040;2023-11-19T05:53:57;20.00;62.80
61398;DHT22;47267;48.130;-2.040;2023-11-19T05:56:23;20.00;62.80
61398;DHT22;47267;48.130;-2.040;2023-11-19T05:58:48;20.00;62.80
61398;DHT22;47267;48.130;-2.040;2023-11-19T06:01:15;20.00;62.80
61398;DHT22;47267;48.130;-2.040;2023-11-19T06:03:41;20.00;62.80
61398;DHT22;47267;48.130;-2.040;2023-11-19T06:06:08;20.00;62.80
61398;DHT22;47267;48.130;-2.040;2023-11-19T06:08:34;20.00;62.80
61398;DHT22;47267;48.130;-2.040;2023-11-19T06:11:00;20.00;62.80
61398;DHT22;47267;48.130;-2.040;2023-11-19T06:13:26;20.00;62.80
61398;DHT22;47267;48.130;-2.040;2023-11-19T06:15:52;20.00;62.80
61398;DHT22;47267;48.130;-2.040;2023-11-19T06:18:18;20.00;62.80
61398;DHT22;47267;48.130;-2.040;2023-11-19T06:20:45;20.00;62.80
61398;DHT22;47267;48.130;-2.040;2023-11-19T06:23:11;20.00;62.80
61398;DHT22;47267;48.130;-2.040;2023-11-19T06:25:36;20.00;62.80
61398;DHT22;47267;48.130;-2.040;2023-11-19T06:28:03;20.10;62.80
61398;DHT22;47267;48.130;-2.040;2023-11-19T06:30:28;20.10;62.80
61398;DHT22;47267;48.130;-2.040;2023-11-19T06:32:56;20.10;62.80
61398;DHT22;47267;48.130;-2.040;2023-11-19T06:35:22;20.10;62.80
61398;DHT22;47267;48.130;-2.040;2023-11-19T06:37:47;20.10;62.80
61398;DHT22;47267;48.130;-2.040;2023-11-19T06:40:13;20.10;62.80
61398;DHT22;47267;48.130;-2.040;2023-11-19T06:42:41;20.10;62.80
61398;DHT22;47267;48.130;-2.040;2023-11-19T06:45:06;20.10;62.80
61398;DHT22;47267;48.130;-2.040;2023-11-19T06:47:32;20.10;62.80
61398;DHT22;47267;48.130;-2.040;2023-11-19T06:49:58;20.10;62.80
61398;DHT22;47267;48.130;-2.040;2023-11-19T06:52:24;20.10;62.80
61398;DHT22;47267;48.130;-2.040;2023-11-19T06:54:50;20.10;62.80
61398;DHT22;47267;48.130;-2.040;2023-11-19T06:57:16;20.10;62.80
61398;DHT22;47267;48.130;-2.040;2023-11-19T06:59:42;20.10;62.80
61398;DHT22;47267;48.130;-2.040;2023-11-19T07:02:08;20.10;62.80
61398;DHT22;47267;48.130;-2.040;2023-11-19T07:04:34;20.20;62.90
61398;DHT22;47267;48.130;-2.040;2023-11-19T07:07:00;20.20;62.80
61398;DHT22;47267;48.130;-2.040;2023-11-19T07:09:26;20.10;62.80
61398;DHT22;47267;48.130;-2.040;2023-11-19T07:11:51;20.10;62.80
61398;DHT22;47267;48.130;-2.040;2023-11-19T07:14:18;20.20;62.80
61398;DHT22;47267;48.130;-2.040;2023-11-19T07:16:44;20.20;62.80
61398;DHT22;47267;48.130;-2.040;2023-11-19T07:19:11;20.20;62.80
61398;DHT22;47267;48.130;-2.040;2023-11-19T07:21:41;20.20;62.80
61398;DHT22;47267;48.130;-2.040;2023-11-19T07:24:10;20.20;62.80
61398;DHT22;47267;48.130;-2.040;2023-11-19T07:26:39;20.20;62.80
61398;DHT22;47267;48.130;-2.040;2023-11-19T07:29:05;20.20;62.80
61398;DHT22;47267;48.130;-2.040;2023-11-19T07:31:32;20.20;62.80
61398;DHT22;47267;48.130;-2.040;2023-11-19T07:33:58;20.20;62.80
61398;DHT22;47267;48.130;-2.040;2023-11-19T07:36:24;20.20;62.80
61398;DHT22;47267;48.130;-2.040;2023-11-19T07:38:49;20.20;62.80
61398;DHT22;47267;48.130;-2.040;2023-11-19T07:41:15;20.20;62.80
61398;DHT22;47267;48.130;-2.040;2023-11-19T07:43:44;20.20;62.80
61398;DHT22;47267;48.130;-2.040;2023-11-19T07:46:12;20.20;62.80
61398;DHT22;47267;48.130;-2.040;2023-11-19T07:48:41;20.20;62.80
61398;DHT22;47267;48.130;-2.040;2023-11-19T07:51:08;20.20;62.80
61398;DHT22;47267;48.130;-2.040;2023-11-19T07:53:34;20.20;62.80
61398;DHT22;47267;48.130;-2.040;2023-11-19T07:56:00;20.20;62.80
61398;DHT22;47267;48.130;-2.040;2023-11-19T07:58:26;20.30;62.80
61398;DHT22;47267;48.130;-2.040;2023-11-19T08:00:51;20.20;62.70
61398;DHT22;47267;48.130;-2.040;2023-11-19T08:03:17;20.30;62.90
61398;DHT22;47267;48.130;-2.040;2023-11-19T08:05:44;20.30;62.90
61398;DHT22;47267;48.130;-2.040;2023-11-19T08:08:11;20.30;62.90
61398;DHT22;47267;48.130;-2.040;2023-11-19T08:10:37;20.30;62.90
61398;DHT22;47267;48.130;-2.040;2023-11-19T08:13:03;20.30;62.90
61398;DHT22;47267;48.130;-2.040;2023-11-19T08:15:29;20.30;62.90
61398;DHT22;47267;48.130;-2.040;2023-11-19T08:17:55;20.30;62.90
61398;DHT22;47267;48.130;-2.040;2023-11-19T08:20:21;20.30;62.90
61398;DHT22;47267;48.130;-2.040;2023-11-19T08:22:47;20.40;63.00
61398;DHT22;47267;48.130;-2.040;2023-11-19T08:25:13;20.40;63.00
61398;DHT22;47267;48.130;-2.040;2023-11-19T08:27:38;20.40;63.00
61398;DHT22;47267;48.130;-2.040;2023-11-19T08:30:05;20.40;63.00
61398;DHT22;47267;48.130;-2.040;2023-11-19T08:32:32;20.40;63.00
61398;DHT22;47267;48.130;-2.040;2023-11-19T08:34:57;20.40;63.00
61398;DHT22;47267;48.130;-2.040;2023-11-19T08:37:23;20.50;63.00
61398;DHT22;47267;48.130;-2.040;2023-11-19T08:39:49;20.50;63.00
61398;DHT22;47267;48.130;-2.040;2023-11-19T08:42:16;20.50;63.00
61398;DHT22;47267;48.130;-2.040;2023-11-19T08:44:42;20.50;63.00
61398;DHT22;47267;48.130;-2.040;2023-11-19T08:47:09;20.50;63.00
61398;DHT22;47267;48.130;-2.040;2023-11-19T08:49:35;20.50;63.00
61398;DHT22;47267;48.130;-2.040;2023-11-19T08:52:01;20.50;62.90
61398;DHT22;47267;48.130;-2.040;2023-11-19T08:54:27;20.50;63.50
61398;DHT22;47267;48.130;-2.040;2023-11-19T08:56:52;20.50;62.90
61398;DHT22;47267;48.130;-2.040;2023-11-19T08:59:18;20.60;63.00
61398;DHT22;47267;48.130;-2.040;2023-11-19T09:01:44;20.60;63.00
61398;DHT22;47267;48.130;-2.040;2023-11-19T09:04:10;20.60;63.00
61398;DHT22;47267;48.130;-2.040;2023-11-19T09:06:36;20.60;62.90
61398;DHT22;47267;48.130;-2.040;2023-11-19T09:09:02;20.60;62.90
61398;DHT22;47267;48.130;-2.040;2023-11-19T09:11:30;20.60;62.90
61398;DHT22;47267;48.130;-2.040;2023-11-19T09:13:57;20.70;63.00
61398;DHT22;47267;48.130;-2.040;2023-11-19T09:16:22;20.70;63.00
61398;DHT22;47267;48.130;-2.040;2023-11-19T09:18:48;20.70;63.00
61398;DHT22;47267;48.130;-2.040;2023-11-19T09:21:13;20.70;63.00
61398;DHT22;47267;48.130;-2.040;2023-11-19T09:23:40;20.70;63.00
61398;DHT22;47267;48.130;-2.040;2023-11-19T09:26:06;20.70;63.00
61398;DHT22;47267;48.130;-2.040;2023-11-19T09:28:33;20.70;62.90
61398;DHT22;47267;48.130;-2.040;2023-11-19T09:30:59;20.70;62.90
61398;DHT22;47267;48.130;-2.040;2023-11-19T09:33:25;20.70;63.00
61398;DHT22;47267;48.130;-2.040;2023-11-19T09:35:51;20.70;62.90
61398;DHT22;47267;48.130;-2.040;2023-11-19T09:38:17;20.80;63.00
61398;DHT22;47267;48.130;-2.040;2023-11-19T09:40:43;20.80;63.00
61398;DHT22;47267;48.130;-2.040;2023-11-19T09:43:09;20.70;62.90
61398;DHT22;47267;48.130;-2.040;2023-11-19T09:45:49;20.80;62.90
61398;DHT22;47267;48.130;-2.040;2023-11-19T09:48:18;20.80;62.90
61398;DHT22;47267;48.130;-2.040;2023-11-19T09:50:48;20.80;62.90
61398;DHT22;47267;48.130;-2.040;2023-11-19T09:53:17;20.80;62.90
61398;DHT22;47267;48.130;-2.040;2023-11-19T09:55:45;20.80;62.90
61398;DHT22;47267;48.130;-2.040;2023-11-19T09:58:12;20.80;62.90
61398;DHT22;47267;48.130;-2.040;2023-11-19T10:00:40;20.70;62.90
61398;DHT22;47267;48.130;-2.040;2023-11-19T10:03:07;20.80;62.90
61398;DHT22;47267;48.130;-2.040;2023-11-19T10:05:33;20.80;62.80
61398;DHT22;47267;48.130;-2.040;2023-11-19T10:07:58;20.80;62.80
61398;DHT22;47267;48.130;-2.040;2023-11-19T10:10:24;20.80;62.80
61398;DHT22;47267;48.130;-2.040;2023-11-19T10:12:53;20.80;62.80
61398;DHT22;47267;48.130;-2.040;2023-11-19T10:15:22;20.80;62.80
61398;DHT22;47267;48.130;-2.040;2023-11-19T10:17:48;20.80;62.80
61398;DHT22;47267;48.130;-2.040;2023-11-19T10:20:15;20.80;62.80
61398;DHT22;47267;48.130;-2.040;2023-11-19T10:22:41;20.80;62.80
61398;DHT22;47267;48.130;-2.040;2023-11-19T10:25:36;20.80;62.80
61398;DHT22;47267;48.130;-2.040;2023-11-19T10:28:02;20.80;62.70
61398;DHT22;47267;48.130;-2.040;2023-11-19T10:30:30;20.80;62.70
61398;DHT22;47267;48.130;-2.040;2023-11-19T10:33:11;20.80;62.70
61398;DHT22;47267;48.130;-2.040;2023-11-19T10:35:57;20.80;62.70
61398;DHT22;47267;48.130;-2.040;2023-11-19T10:38:23;20.80;62.70
61398;DHT22;47267;48.130;-2.040;2023-11-19T10:40:50;20.80;62.70
61398;DHT22;47267;48.130;-2.040;2023-11-19T10:43:17;20.70;62.60
61398;DHT22;47267;48.130;-2.040;2023-11-19T10:45:43;20.70;62.60
61398;DHT22;47267;48.130;-2.040;2023-11-19T10:48:09;20.70;62.60
61398;DHT22;47267;48.130;-2.040;2023-11-19T10:50:39;20.70;62.60
61398;DHT22;47267;48.130;-2.040;2023-11-19T10:53:06;20.70;62.60
61398;DHT22;47267;48.130;-2.040;2023-11-19T10:55:33;20.70;62.60
61398;DHT22;47267;48.130;-2.040;2023-11-19T10:58:05;20.70;62.60
61398;DHT22;47267;48.130;-2.040;2023-11-19T11:00:43;20.70;62.60
61398;DHT22;47267;48.130;-2.040;2023-11-19T11:03:21;20.70;62.60
61398;DHT22;47267;48.130;-2.040;2023-11-19T11:05:52;20.70;62.60
61398;DHT22;47267;48.130;-2.040;2023-11-19T11:08:19;20.70;62.60
61398;DHT22;47267;48.130;-2.040;2023-11-19T11:10:55;20.70;62.60
61398;DHT22;47267;48.130;-2.040;2023-11-19T11:13:26;20.70;62.60
61398;DHT22;47267;48.130;-2.040;2023-11-19T11:15:56;20.70;62.50
61398;DHT22;47267;48.130;-2.040;2023-11-19T11:18:23;20.60;62.50
61398;DHT22;47267;48.130;-2.040;2023-11-19T11:21:14;20.60;62.40
61398;DHT22;47267;48.130;-2.040;2023-11-19T11:39:34;20.60;62.40
61398;DHT22;47267;48.130;-2.040;2023-11-19T11:50:14;20.50;62.40
61398;DHT22;47267;48.130;-2.040;2023-11-19T11:55:27;20.50;62.40
61398;DHT22;47267;48.130;-2.040;2023-11-19T11:57:54;20.50;62.40
61398;DHT22;47267;48.130;-2.040;2023-11-19T12:02:59;20.50;62.30
61398;DHT22;47267;48.130;-2.040;2023-11-19T12:05:25;20.50;62.30
61398;DHT22;47267;48.130;-2.040;2023-11-19T12:08:00;20.50;62.30
61398;DHT22;47267;48.130;-2.040;2023-11-19T12:10:29;20.40;62.30
61398;DHT22;47267;48.130;-2.040;2023-11-19T12:13:06;20.40;62.30
61398;DHT22;47267;48.130;-2.040;2023-11-19T12:15:32;20.40;62.20
61398;DHT22;47267;48.130;-2.040;2023-11-19T12:17:58;20.40;62.30
61398;DHT22;47267;48.130;-2.040;2023-11-19T12:20:25;20.40;62.30
61398;DHT22;47267;48.130;-2.040;2023-11-19T12:22:52;20.40;62.20
61398;DHT22;47267;48.130;-2.040;2023-11-19T12:25:19;20.40;62.20
61398;DHT22;47267;48.130;-2.040;2023-11-19T12:27:47;20.40;62.20
61398;DHT22;47267;48.130;-2.040;2023-11-19T12:30:17;20.40;62.30
61398;DHT22;47267;48.130;-2.040;2023-11-19T12:32:46;20.40;62.20
61398;DHT22;47267;48.130;-2.040;2023-11-19T12:35:12;20.30;62.20
61398;DHT22;47267;48.130;-2.040;2023-11-19T12:37:46;20.30;62.20
61398;DHT22;47267;48.130;-2.040;2023-11-19T12:42:51;20.30;62.20
61398;DHT22;47267;48.130;-2.040;2023-11-19T12:45:18;20.30;62.80
61398;DHT22;47267;48.130;-2.040;2023-11-19T12:47:46;20.30;62.20
61398;DHT22;47267;48.130;-2.040;2023-11-19T12:50:14;20.30;62.20
61398;DHT22;47267;48.130;-2.040;2023-11-19T12:52:41;20.30;62.20
61398;DHT22;47267;48.130;-2.040;2023-11-19T12:55:29;20.20;62.10
61398;DHT22;47267;48.130;-2.040;2023-11-19T12:57:55;20.20;62.10
61398;DHT22;47267;48.130;-2.040;2023-11-19T13:00:23;20.20;62.10
61398;DHT22;47267;48.130;-2.040;2023-11-19T13:02:51;20.30;62.20
61398;DHT22;47267;48.130;-2.040;2023-11-19T13:05:32;20.20;62.10
61398;DHT22;47267;48.130;-2.040;2023-11-19T13:08:06;20.20;62.10
61398;DHT22;47267;48.130;-2.040;2023-11-19T13:10:50;20.20;62.10
61398;DHT22;47267;48.130;-2.040;2023-11-19T13:13:16;20.20;62.10
61398;DHT22;47267;48.130;-2.040;2023-11-19T13:15:42;20.20;62.10
61398;DHT22;47267;48.130;-2.040;2023-11-19T13:18:10;20.20;62.20
61398;DHT22;47267;48.130;-2.040;2023-11-19T13:20:36;20.20;62.10
61398;DHT22;47267;48.130;-2.040;2023-11-19T13:23:04;20.20;62.10
61398;DHT22;47267;48.130;-2.040;2023-11-19T13:25:30;20.20;62.10
61398;DHT22;47267;48.130;-2.040;2023-11-19T13:27:56;20.20;62.10
61398;DHT22;47267;48.130;-2.040;2023-11-19T13:30:23;20.20;62.10
61398;DHT22;47267;48.130;-2.040;2023-11-19T13:32:50;20.20;62.10
61398;DHT22;47267;48.130;-2.040;2023-11-19T13:35:17;20.20;62.20
61398;DHT22;47267;48.130;-2.040;2023-11-19T13:37:43;20.10;62.00
61398;DHT22;47267;48.130;-2.040;2023-11-19T13:40:10;20.10;62.10
61398;DHT22;47267;48.130;-2.040;2023-11-19T13:42:39;20.20;62.10
61398;DHT22;47267;48.130;-2.040;2023-11-19T13:45:11;20.20;62.10
61398;DHT22;47267;48.130;-2.040;2023-11-19T13:47:39;20.10;62.10
61398;DHT22;47267;48.130;-2.040;2023-11-19T13:50:12;20.10;62.10
61398;DHT22;47267;48.130;-2.040;2023-11-19T13:52:39;20.10;62.10
61398;DHT22;47267;48.130;-2.040;2023-11-19T13:55:07;20.10;62.10
61398;DHT22;47267;48.130;-2.040;2023-11-19T13:57:34;20.20;62.10
61398;DHT22;47267;48.130;-2.040;2023-11-19T14:00:04;20.10;62.10
61398;DHT22;47267;48.130;-2.040;2023-11-19T14:02:36;20.10;62.10
61398;DHT22;47267;48.130;-2.040;2023-11-19T14:05:02;20.10;62.10
61398;DHT22;47267;48.130;-2.040;2023-11-19T14:07:28;20.10;62.10
61398;DHT22;47267;48.130;-2.040;2023-11-19T14:09:54;20.10;62.10
61398;DHT22;47267;48.130;-2.040;2023-11-19T14:12:20;20.10;62.10
61398;DHT22;47267;48.130;-2.040;2023-11-19T14:14:45;20.10;62.10
61398;DHT22;47267;48.130;-2.040;2023-11-19T14:17:11;20.10;62.10
61398;DHT22;47267;48.130;-2.040;2023-11-19T14:19:38;20.10;62.10
61398;DHT22;47267;48.130;-2.040;2023-11-19T14:22:05;20.10;62.10
61398;DHT22;47267;48.130;-2.040;2023-11-19T14:24:31;20.10;62.10
61398;DHT22;47267;48.130;-2.040;2023-11-19T14:26:56;20.10;62.10
61398;DHT22;47267;48.130;-2.040;2023-11-19T14:29:24;20.10;62.10
61398;DHT22;47267;48.130;-2.040;2023-11-19T14:31:52;20.10;62.10
61398;DHT22;47267;48.130;-2.040;2023-11-19T14:34:19;20.10;62.10
61398;DHT22;47267;48.130;-2.040;2023-11-19T14:36:45;20.10;62.10
61398;DHT22;47267;48.130;-2.040;2023-11-19T14:39:11;20.10;62.10
61398;DHT22;47267;48.130;-2.040;2023-11-19T14:41:37;20.10;62.10
61398;DHT22;47267;48.130;-2.040;2023-11-19T14:44:02;20.10;62.10
61398;DHT22;47267;48.130;-2.040;2023-11-19T14:46:29;20.10;62.20
61398;DHT22;47267;48.130;-2.040;2023-11-19T14:48:54;20.10;62.10
61398;DHT22;47267;48.130;-2.040;2023-11-19T14:51:20;20.10;62.10
61398;DHT22;47267;48.130;-2.040;2023-11-19T14:53:46;20.10;62.10
61398;DHT22;47267;48.130;-2.040;2023-11-19T14:56:12;20.10;62.10
61398;DHT22;47267;48.130;-2.040;2023-11-19T14:58:39;20.10;62.10
61398;DHT22;47267;48.130;-2.040;2023-11-19T15:01:05;20.20;62.20
61398;DHT22;47267;48.130;-2.040;2023-11-19T15:03:31;20.20;62.10
61398;DHT22;47267;48.130;-2.040;2023-11-19T15:05:56;20.20;62.20
61398;DHT22;47267;48.130;-2.040;2023-11-19T15:08:22;20.20;62.20
61398;DHT22;47267;48.130;-2.040;2023-11-19T15:10:48;20.20;62.70
61398;DHT22;47267;48.130;-2.040;2023-11-19T15:13:14;20.20;62.20
61398;DHT22;47267;48.130;-2.040;2023-11-19T15:15:39;20.20;62.10
61398;DHT22;47267;48.130;-2.040;2023-11-19T15:18:05;20.20;62.10
61398;DHT22;47267;48.130;-2.040;2023-11-19T15:20:31;20.20;62.10
61398;DHT22;47267;48.130;-2.040;2023-11-19T15:22:57;20.20;62.10
61398;DHT22;47267;48.130;-2.040;2023-11-19T15:25:23;20.20;62.10
61398;DHT22;47267;48.130;-2.040;2023-11-19T15:27:49;20.20;62.10
61398;DHT22;47267;48.130;-2.040;2023-11-19T15:30:15;20.20;62.10
61398;DHT22;47267;48.130;-2.040;2023-11-19T15:32:41;20.20;62.10
61398;DHT22;47267;48.130;-2.040;2023-11-19T15:35:08;20.20;62.10
61398;DHT22;47267;48.130;-2.040;2023-11-19T15:37:35;20.20;62.10
61398;DHT22;47267;48.130;-2.040;2023-11-19T15:40:01;20.20;62.00
61398;DHT22;47267;48.130;-2.040;2023-11-19T15:42:29;20.30;62.10
61398;DHT22;47267;48.130;-2.040;2023-11-19T15:44:55;20.30;62.10
61398;DHT22;47267;48.130;-2.040;2023-11-19T15:47:21;20.30;62.10